sensor_id;sensor_type;location;lat;lon;timestamp;temperature;humidity
51579;DHT22;47998;53.242;6.386;2023-06-14T00:00:40;14.60;11.20
51579;DHT22;47998;53.242;6.386;2023-06-14T00:03:10;14.50;27.30
51579;DHT22;47998;53.242;6.386;2023-06-14T00:05:37;14.50;49.60
51579;DHT22;47998;53.242;6.386;2023-06-14T00:08:11;14.50;99.90
51579;DHT22;47998;53.242;6.386;2023-06-14T00:10:37;14.40;99.90
51579;DHT22;47998;53.242;6.386;2023-06-14T00:13:03;14.40;99.90
51579;DHT22;47998;53.242;6.386;2023-06-14T00:15:31;14.30;99.90
51579;DHT22;47998;53.242;6.386;2023-06-14T00:17:57;14.30;1.00
51579;DHT22;47998;53.242;6.386;2023-06-14T00:20:26;14.30;1.00
51579;DHT22;47998;53.242;6.386;2023-06-14T00:22:53;14.20;1.00
51579;DHT22;47998;53.242;6.386;2023-06-14T00:25:22;14.20;1.00
51579;DHT22;47998;53.242;6.386;2023-06-14T00:27:47;14.10;88.90
51579;DHT22;47998;53.242;6.386;2023-06-14T00:30:13;14.10;99.90
51579;DHT22;47998;53.242;6.386;2023-06-14T00:32:39;14.10;99.90
51579;DHT22;47998;53.242;6.386;2023-06-14T00:35:05;14.10;99.90
51579;DHT22;47998;53.242;6.386;2023-06-14T00:37:33;14.00;99.90
51579;DHT22;47998;53.242;6.386;2023-06-14T00:39:58;14.00;1.00
51579;DHT22;47998;53.242;6.386;2023-06-14T00:42:25;13.90;1.00
51579;DHT22;47998;53.242;6.386;2023-06-14T00:44:52;13.90;1.00
51579;DHT22;47998;53.242;6.386;2023-06-14T00:47:18;13.90;1.00
51579;DHT22;47998;53.242;6.386;2023-06-14T00:49:45;13.80;1.00
51579;DHT22;47998;53.242;6.386;2023-06-14T00:52:11;13.80;1.00
51579;DHT22;47998;53.242;6.386;2023-06-14T00:54:39;13.80;99.90
51579;DHT22;47998;53.242;6.386;2023-06-14T00:57:05;13.80;99.90
51579;DHT22;47998;53.242;6.386;2023-06-14T00:59:31;13.70;99.90
51579;DHT22;47998;53.242;6.386;2023-06-14T01:01:57;13.70;99.90
51579;DHT22;47998;53.242;6.386;2023-06-14T01:04:23;13.70;99.90
51579;DHT22;47998;53.242;6.386;2023-06-14T01:06:51;13.60;99.90
51579;DHT22;47998;53.242;6.386;2023-06-14T01:10:06;13.60;99.90
51579;DHT22;47998;53.242;6.386;2023-06-14T01:12:52;13.60;1.00
51579;DHT22;47998;53.242;6.386;2023-06-14T01:15:19;13.50;1.00
51579;DHT22;47998;53.242;6.386;2023-06-14T01:17:46;13.50;1.00
51579;DHT22;47998;53.242;6.386;2023-06-14T01:20:17;13.50;1.00
51579;DHT22;47998;53.242;6.386;2023-06-14T01:22:52;13.50;1.00
51579;DHT22;47998;53.242;6.386;2023-06-14T01:25:19;13.50;1.00
51579;DHT22;47998;53.242;6.386;2023-06-14T01:27:58;13.50;1.00
51579;DHT22;47998;53.242;6.386;2023-06-14T01:30:24;13.50;23.60
51579;DHT22;47998;53.242;6.386;2023-06-14T01:32:52;13.50;1.00
51579;DHT22;47998;53.242;6.386;2023-06-14T01:35:18;13.50;23.70
51579;DHT22;47998;53.242;6.386;2023-06-14T01:37:47;13.50;40.00
51579;DHT22;47998;53.242;6.386;2023-06-14T01:40:14;13.50;83.50
51579;DHT22;47998;53.242;6.386;2023-06-14T01:42:40;13.40;99.90
51579;DHT22;47998;53.242;6.386;2023-06-14T01:45:07;13.50;99.90
51579;DHT22;47998;53.242;6.386;2023-06-14T01:47:34;13.40;99.90
51579;DHT22;47998;53.242;6.386;2023-06-14T01:50:02;13.40;99.90
51579;DHT22;47998;53.242;6.386;2023-06-14T01:52:28;13.40;99.90
51579;DHT22;47998;53.242;6.386;2023-06-14T01:54:54;13.40;99.90
51579;DHT22;47998;53.242;6.386;2023-06-14T01:57:20;13.40;99.90
51579;DHT22;47998;53.242;6.386;2023-06-14T01:59:47;13.40;99.90
51579;DHT22;47998;53.242;6.386;2023-06-14T02:02:14;13.40;99.90
51579;DHT22;47998;53.242;6.386;2023-06-14T02:04:41;13.30;99.90
51579;DHT22;47998;53.242;6.386;2023-06-14T02:07:07;13.30;99.90
51579;DHT22;47998;53.242;6.386;2023-06-14T02:09:34;13.30;99.90
51579;DHT22;47998;53.242;6.386;2023-06-14T02:12:00;13.30;99.90
51579;DHT22;47998;53.242;6.386;2023-06-14T02:14:26;13.30;99.90
51579;DHT22;47998;53.242;6.386;2023-06-14T02:16:52;13.30;99.90
51579;DHT22;47998;53.242;6.386;2023-06-14T02:19:19;13.30;99.90
51579;DHT22;47998;53.242;6.386;2023-06-14T02:21:45;13.30;99.90
51579;DHT22;47998;53.242;6.386;2023-06-14T02:24:11;13.30;99.90
51579;DHT22;47998;53.242;6.386;2023-06-14T02:26:37;13.20;99.90
51579;DHT22;47998;53.242;6.386;2023-06-14T02:29:06;13.20;99.90
51579;DHT22;47998;53.242;6.386;2023-06-14T02:31:35;13.20;1.00
51579;DHT22;47998;53.242;6.386;2023-06-14T02:34:01;13.20;99.90
51579;DHT22;47998;53.242;6.386;2023-06-14T02:36:27;13.20;1.00
51579;DHT22;47998;53.242;6.386;2023-06-14T02:38:55;13.20;1.00
51579;DHT22;47998;53.242;6.386;2023-06-14T02:41:23;13.10;1.00
51579;DHT22;47998;53.242;6.386;2023-06-14T02:43:49;13.10;1.00
51579;DHT22;47998;53.242;6.386;2023-06-14T02:46:15;13.10;1.00
51579;DHT22;47998;53.242;6.386;2023-06-14T02:48:41;13.00;1.00
51579;DHT22;47998;53.242;6.386;2023-06-14T02:51:07;13.00;1.00
51579;DHT22;47998;53.242;6.386;2023-06-14T02:53:34;13.00;1.00
51579;DHT22;47998;53.242;6.386;2023-06-14T02:56:00;13.00;1.00
51579;DHT22;47998;53.242;6.386;2023-06-14T02:58:26;13.00;1.00
51579;DHT22;47998;53.242;6.386;2023-06-14T03:00:52;13.00;1.00
51579;DHT22;47998;53.242;6.386;2023-06-14T03:03:18;12.90;1.00
51579;DHT22;47998;53.242;6.386;2023-06-14T03:05:47;12.90;27.00
51579;DHT22;47998;53.242;6.386;2023-06-14T03:08:15;12.90;60.50
51579;DHT22;47998;53.242;6.386;2023-06-14T03:10:49;12.80;84.70
51579;DHT22;47998;53.242;6.386;2023-06-14T03:13:17;12.80;99.90
51579;DHT22;47998;53.242;6.386;2023-06-14T03:15:46;12.70;91.00
51579;DHT22;47998;53.242;6.386;2023-06-14T03:18:13;12.70;99.90
51579;DHT22;47998;53.242;6.386;2023-06-14T03:20:40;12.70;99.90
51579;DHT22;47998;53.242;6.386;2023-06-14T03:23:06;12.70;99.90
51579;DHT22;47998;53.242;6.386;2023-06-14T03:25:32;12.70;99.90
51579;DHT22;47998;53.242;6.386;2023-06-14T03:28:04;12.70;99.90
51579;DHT22;47998;53.242;6.386;2023-06-14T03:30:30;12.70;99.90
51579;DHT22;47998;53.242;6.386;2023-06-14T03:32:57;12.70;99.90
51579;DHT22;47998;53.242;6.386;2023-06-14T03:35:23;12.70;99.90
51579;DHT22;47998;53.242;6.386;2023-06-14T03:37:49;12.60;99.90
51579;DHT22;47998;53.242;6.386;2023-06-14T03:40:17;12.60;99.90
51579;DHT22;47998;53.242;6.386;2023-06-14T03:42:44;12.60;99.90
51579;DHT22;47998;53.242;6.386;2023-06-14T03:45:09;12.60;99.90
51579;DHT22;47998;53.242;6.386;2023-06-14T03:47:35;12.70;99.90
51579;DHT22;47998;53.242;6.386;2023-06-14T03:50:02;12.70;99.90
51579;DHT22;47998;53.242;6.386;2023-06-14T03:52:29;12.70;99.90
51579;DHT22;47998;53.242;6.386;2023-06-14T03:54:54;12.70;99.90
51579;DHT22;47998;53.242;6.386;2023-06-14T03:57:22;12.70;99.90
51579;DHT22;47998;53.242;6.386;2023-06-14T03:59:48;12.80;1.00
51579;DHT22;47998;53.242;6.386;2023-06-14T04:02:14;12.80;1.00
51579;DHT22;47998;53.242;6.386;2023-06-14T04:04:43;12.80;99.90
51579;DHT22;47998;53.242;6.386;2023-06-14T04:07:16;12.80;99.90
51579;DHT22;47998;53.242;6.386;2023-06-14T04:09:45;12.90;1.00
51579;DHT22;47998;53.242;6.386;2023-06-14T04:12:10;12.90;1.00
51579;DHT22;47998;53.242;6.386;2023-06-14T04:14:40;13.00;1.00
51579;DHT22;47998;53.242;6.386;2023-06-14T04:17:06;13.10;1.00
51579;DHT22;47998;53.242;6.386;2023-06-14T04:19:32;13.10;1.00
51579;DHT22;47998;53.242;6.386;2023-06-14T04:21:58;13.20;1.00
51579;DHT22;47998;53.242;6.386;2023-06-14T04:24:26;13.20;1.00
51579;DHT22;47998;53.242;6.386;2023-06-14T04:26:58;13.30;1.00
51579;DHT22;47998;53.242;6.386;2023-06-14T04:29:24;13.40;1.00
51579;DHT22;47998;53.242;6.386;2023-06-14T04:31:54;13.50;1.00
51579;DHT22;47998;53.242;6.386;2023-06-14T04:34:20;13.50;1.00
51579;DHT22;47998;53.242;6.386;2023-06-14T04:36:47;13.60;1.00
51579;DHT22;47998;53.242;6.386;2023-06-14T04:39:19;13.60;1.00
51579;DHT22;47998;53.242;6.386;2023-06-14T04:41:45;13.70;1.00
51579;DHT22;47998;53.242;6.386;2023-06-14T04:44:12;13.80;1.00
51579;DHT22;47998;53.242;6.386;2023-06-14T04:46:38;13.80;1.00
51579;DHT22;47998;53.242;6.386;2023-06-14T04:49:12;13.90;99.90
51579;DHT22;47998;53.242;6.386;2023-06-14T04:51:41;14.00;1.00
51579;DHT22;47998;53.242;6.386;2023-06-14T04:54:08;14.10;99.90
51579;DHT22;47998;53.242;6.386;2023-06-14T04:56:39;14.10;99.90
51579;DHT22;47998;53.242;6.386;2023-06-14T04:59:04;14.20;99.90
51579;DHT22;47998;53.242;6.386;2023-06-14T05:01:31;14.30;99.90
51579;DHT22;47998;53.242;6.386;2023-06-14T05:03:59;14.40;99.90
51579;DHT22;47998;53.242;6.386;2023-06-14T05:06:25;14.70;99.90
51579;DHT22;47998;53.242;6.386;2023-06-14T05:08:54;15.20;99.90
51579;DHT22;47998;53.242;6.386;2023-06-14T05:11:20;15.60;99.90
51579;DHT22;47998;53.242;6.386;2023-06-14T05:13:46;15.70;99.90
51579;DHT22;47998;53.242;6.386;2023-06-14T05:16:12;15.80;99.90
51579;DHT22;47998;53.242;6.386;2023-06-14T05:18:38;16.30;99.90
51579;DHT22;47998;53.242;6.386;2023-06-14T05:21:05;16.50;87.00
51579;DHT22;47998;53.242;6.386;2023-06-14T05:23:31;16.80;41.20
51579;DHT22;47998;53.242;6.386;2023-06-14T05:25:57;17.40;1.00
51579;DHT22;47998;53.242;6.386;2023-06-14T05:28:23;17.90;1.00
51579;DHT22;47998;53.242;6.386;2023-06-14T05:30:49;18.80;99.90
51579;DHT22;47998;53.242;6.386;2023-06-14T05:33:15;19.50;3.30
51579;DHT22;47998;53.242;6.386;2023-06-14T05:35:41;20.10;99.90
51579;DHT22;47998;53.242;6.386;2023-06-14T05:38:07;20.60;99.90
51579;DHT22;47998;53.242;6.386;2023-06-14T05:40:33;20.80;1.00
51579;DHT22;47998;53.242;6.386;2023-06-14T05:42:59;21.00;99.90
51579;DHT22;47998;53.242;6.386;2023-06-14T05:45:25;21.30;99.90
51579;DHT22;47998;53.242;6.386;2023-06-14T05:47:51;21.70;1.00
51579;DHT22;47998;53.242;6.386;2023-06-14T05:50:17;21.90;1.00
51579;DHT22;47998;53.242;6.386;2023-06-14T05:52:43;22.10;1.00
51579;DHT22;47998;53.242;6.386;2023-06-14T05:55:09;22.10;99.90
51579;DHT22;47998;53.242;6.386;2023-06-14T05:57:37;22.30;99.90
51579;DHT22;47998;53.242;6.386;2023-06-14T06:00:03;22.70;99.90
51579;DHT22;47998;53.242;6.386;2023-06-14T06:02:43;22.80;99.90
51579;DHT22;47998;53.242;6.386;2023-06-14T06:05:09;22.90;1.00
51579;DHT22;47998;53.242;6.386;2023-06-14T06:07:36;23.10;1.00
51579;DHT22;47998;53.242;6.386;2023-06-14T06:10:03;23.00;1.00
51579;DHT22;47998;53.242;6.386;2023-06-14T06:12:29;23.40;1.00
51579;DHT22;47998;53.242;6.386;2023-06-14T06:14:54;23.40;99.90
51579;DHT22;47998;53.242;6.386;2023-06-14T06:17:21;23.70;99.90
51579;DHT22;47998;53.242;6.386;2023-06-14T06:19:46;23.70;99.90
51579;DHT22;47998;53.242;6.386;2023-06-14T06:22:12;23.90;99.90
51579;DHT22;47998;53.242;6.386;2023-06-14T06:24:38;24.00;99.90
51579;DHT22;47998;53.242;6.386;2023-06-14T06:27:04;24.00;99.90
51579;DHT22;47998;53.242;6.386;2023-06-14T06:29:29;24.00;99.90
51579;DHT22;47998;53.242;6.386;2023-06-14T06:31:55;24.40;99.90
51579;DHT22;47998;53.242;6.386;2023-06-14T06:34:21;24.50;99.90
51579;DHT22;47998;53.242;6.386;2023-06-14T06:36:47;24.50;69.40
51579;DHT22;47998;53.242;6.386;2023-06-14T06:39:13;24.30;44.60
51579;DHT22;47998;53.242;6.386;2023-06-14T06:41:40;24.40;53.10
51579;DHT22;47998;53.242;6.386;2023-06-14T06:44:07;24.70;48.40
51579;DHT22;47998;53.242;6.386;2023-06-14T06:46:33;24.90;17.50
51579;DHT22;47998;53.242;6.386;2023-06-14T06:49:00;25.10;12.70
51579;DHT22;47998;53.242;6.386;2023-06-14T06:51:26;25.30;12.30
51579;DHT22;47998;53.242;6.386;2023-06-14T06:53:53;25.50;7.70
51579;DHT22;47998;53.242;6.386;2023-06-14T06:56:19;25.60;1.00
51579;DHT22;47998;53.242;6.386;2023-06-14T06:58:47;25.70;1.00
51579;DHT22;47998;53.242;6.386;2023-06-14T07:01:13;25.90;1.00
51579;DHT22;47998;53.242;6.386;2023-06-14T07:03:39;26.00;1.00
51579;DHT22;47998;53.242;6.386;2023-06-14T07:06:05;25.80;1.00
51579;DHT22;47998;53.242;6.386;2023-06-14T07:08:30;26.00;1.00
51579;DHT22;47998;53.242;6.386;2023-06-14T07:10:56;25.80;1.00
51579;DHT22;47998;53.242;6.386;2023-06-14T07:13:22;26.30;1.00
51579;DHT22;47998;53.242;6.386;2023-06-14T07:15:47;26.40;1.00
51579;DHT22;47998;53.242;6.386;2023-06-14T07:18:13;26.50;1.00
51579;DHT22;47998;53.242;6.386;2023-06-14T07:20:39;26.40;1.00
51579;DHT22;47998;53.242;6.386;2023-06-14T07:23:05;26.60;1.00
51579;DHT22;47998;53.242;6.386;2023-06-14T07:25:31;26.50;1.00
51579;DHT22;47998;53.242;6.386;2023-06-14T07:27:57;26.50;1.00
51579;DHT22;47998;53.242;6.386;2023-06-14T07:30:23;26.50;1.00
51579;DHT22;47998;53.242;6.386;2023-06-14T07:32:52;26.60;1.00
51579;DHT22;47998;53.242;6.386;2023-06-14T07:35:18;26.30;1.00
51579;DHT22;47998;53.242;6.386;2023-06-14T07:37:44;26.70;1.00
51579;DHT22;47998;53.242;6.386;2023-06-14T07:40:12;27.10;1.00
51579;DHT22;47998;53.242;6.386;2023-06-14T07:42:39;27.10;1.00
51579;DHT22;47998;53.242;6.386;2023-06-14T07:45:05;27.50;1.00
51579;DHT22;47998;53.242;6.386;2023-06-14T07:47:32;27.60;1.00
51579;DHT22;47998;53.242;6.386;2023-06-14T07:49:57;27.50;1.00
51579;DHT22;47998;53.242;6.386;2023-06-14T07:52:23;27.70;1.00
51579;DHT22;47998;53.242;6.386;2023-06-14T07:54:49;27.50;1.00
51579;DHT22;47998;53.242;6.386;2023-06-14T07:57:14;27.40;1.00
51579;DHT22;47998;53.242;6.386;2023-06-14T07:59:40;27.40;1.00
51579;DHT22;47998;53.242;6.386;2023-06-14T08:02:06;27.40;1.00
51579;DHT22;47998;53.242;6.386;2023-06-14T08:04:32;27.40;1.00
51579;DHT22;47998;53.242;6.386;2023-06-14T08:06:59;27.30;99.90
51579;DHT22;47998;53.242;6.386;2023-06-14T08:09:24;27.80;1.00
51579;DHT22;47998;53.242;6.386;2023-06-14T08:11:51;27.60;1.00
51579;DHT22;47998;53.242;6.386;2023-06-14T08:14:16;27.70;99.90
51579;DHT22;47998;53.242;6.386;2023-06-14T08:16:42;27.70;1.00
51579;DHT22;47998;53.242;6.386;2023-06-14T08:19:08;27.40;99.90
51579;DHT22;47998;53.242;6.386;2023-06-14T08:21:34;27.70;99.90
51579;DHT22;47998;53.242;6.386;2023-06-14T08:24:02;27.70;1.00
51579;DHT22;47998;53.242;6.386;2023-06-14T08:26:28;27.70;99.90
51579;DHT22;47998;53.242;6.386;2023-06-14T08:28:57;27.70;99.90
51579;DHT22;47998;53.242;6.386;2023-06-14T08:31:23;28.00;1.00
51579;DHT22;47998;53.242;6.386;2023-06-14T08:33:53;28.00;99.90
51579;DHT22;47998;53.242;6.386;2023-06-14T08:36:18;28.20;1.00
51579;DHT22;47998;53.242;6.386;2023-06-14T08:38:45;28.30;1.00
51579;DHT22;47998;53.242;6.386;2023-06-14T08:41:12;28.50;1.00
51579;DHT22;47998;53.242;6.386;2023-06-14T08:43:39;28.80;99.90
51579;DHT22;47998;53.242;6.386;2023-06-14T08:46:06;28.70;1.00
51579;DHT22;47998;53.242;6.386;2023-06-14T08:48:34;28.70;1.00
51579;DHT22;47998;53.242;6.386;2023-06-14T08:51:00;28.60;99.90
51579;DHT22;47998;53.242;6.386;2023-06-14T08:53:32;28.50;99.90
51579;DHT22;47998;53.242;6.386;2023-06-14T08:56:02;28.50;99.90
51579;DHT22;47998;53.242;6.386;2023-06-14T08:58:30;28.30;99.90
51579;DHT22;47998;53.242;6.386;2023-06-14T09:01:02;28.20;99.90
51579;DHT22;47998;53.242;6.386;2023-06-14T09:03:28;28.10;99.90
51579;DHT22;47998;53.242;6.386;2023-06-14T09:05:58;28.20;99.90
51579;DHT22;47998;53.242;6.386;2023-06-14T09:08:25;28.40;99.90
51579;DHT22;47998;53.242;6.386;2023-06-14T09:10:51;28.60;99.90
51579;DHT22;47998;53.242;6.386;2023-06-14T09:13:17;28.60;99.90
51579;DHT22;47998;53.242;6.386;2023-06-14T09:15:43;28.60;99.90
51579;DHT22;47998;53.242;6.386;2023-06-14T09:18:09;28.70;99.90
51579;DHT22;47998;53.242;6.386;2023-06-14T09:20:35;29.00;99.90
51579;DHT22;47998;53.242;6.386;2023-06-14T09:23:01;28.70;1.00
51579;DHT22;47998;53.242;6.386;2023-06-14T09:25:28;28.70;1.00
51579;DHT22;47998;53.242;6.386;2023-06-14T09:27:53;28.90;1.00
51579;DHT22;47998;53.242;6.386;2023-06-14T09:30:20;28.60;99.90
51579;DHT22;47998;53.242;6.386;2023-06-14T09:32:46;28.40;99.90
51579;DHT22;47998;53.242;6.386;2023-06-14T09:35:12;28.40;99.90
51579;DHT22;47998;53.242;6.386;2023-06-14T09:37:42;28.50;1.00
51579;DHT22;47998;53.242;6.386;2023-06-14T09:40:08;28.90;1.00
51579;DHT22;47998;53.242;6.386;2023-06-14T09:42:35;29.10;1.00
51579;DHT22;47998;53.242;6.386;2023-06-14T09:45:03;29.10;1.00
51579;DHT22;47998;53.242;6.386;2023-06-14T09:47:29;29.50;1.00
51579;DHT22;47998;53.242;6.386;2023-06-14T09:49:55;29.30;1.00
51579;DHT22;47998;53.242;6.386;2023-06-14T09:52:21;29.40;1.00
51579;DHT22;47998;53.242;6.386;2023-06-14T09:54:48;29.10;1.00
51579;DHT22;47998;53.242;6.386;2023-06-14T09:57:20;28.90;1.00
51579;DHT22;47998;53.242;6.386;2023-06-14T09:59:46;28.90;1.00
51579;DHT22;47998;53.242;6.386;2023-06-14T10:02:26;28.90;1.00
51579;DHT22;47998;53.242;6.386;2023-06-14T10:05:06;29.20;1.00
51579;DHT22;47998;53.242;6.386;2023-06-14T10:07:59;29.20;1.00
51579;DHT22;47998;53.242;6.386;2023-06-14T10:10:25;29.10;1.00
51579;DHT22;47998;53.242;6.386;2023-06-14T10:12:51;28.90;1.00
51579;DHT22;47998;53.242;6.386;2023-06-14T10:23:46;29.20;1.00
51579;DHT22;47998;53.242;6.386;2023-06-14T10:26:20;29.40;1.00
51579;DHT22;47998;53.242;6.386;2023-06-14T10:28:57;29.30;99.90
51579;DHT22;47998;53.242;6.386;2023-06-14T10:31:43;29.00;99.90
51579;DHT22;47998;53.242;6.386;2023-06-14T10:34:11;29.10;99.90
51579;DHT22;47998;53.242;6.386;2023-06-14T10:36:38;29.10;1.00
51579;DHT22;47998;53.242;6.386;2023-06-14T10:39:08;29.20;1.00
51579;DHT22;47998;53.242;6.386;2023-06-14T10:41:40;29.50;1.00
51579;DHT22;47998;53.242;6.386;2023-06-14T10:46:48;29.50;99.90
51579;DHT22;47998;53.242;6.386;2023-06-14T10:49:20;29.40;99.90
51579;DHT22;47998;53.242;6.386;2023-06-14T10:51:52;29.30;99.90
51579;DHT22;47998;53.242;6.386;2023-06-14T10:54:21;29.40;99.90
51579;DHT22;47998;53.242;6.386;2023-06-14T10:56:52;28.90;99.90
51579;DHT22;47998;53.242;6.386;2023-06-14T10:59:19;29.30;99.90
51579;DHT22;47998;53.242;6.386;2023-06-14T11:01:57;29.30;99.90
51579;DHT22;47998;53.242;6.386;2023-06-14T11:07:47;29.70;1.00
51579;DHT22;47998;53.242;6.386;2023-06-14T11:10:41;29.80;1.00
51579;DHT22;47998;53.242;6.386;2023-06-14T11:13:08;29.60;99.90
51579;DHT22;47998;53.242;6.386;2023-06-14T11:15:38;29.40;99.90
51579;DHT22;47998;53.242;6.386;2023-06-14T11:18:08;29.40;99.90
51579;DHT22;47998;53.242;6.386;2023-06-14T11:20:37;29.30;99.90
51579;DHT22;47998;53.242;6.386;2023-06-14T11:23:03;29.40;99.90
51579;DHT22;47998;53.242;6.386;2023-06-14T11:25:29;29.60;99.90
51579;DHT22;47998;53.242;6.386;2023-06-14T11:27:55;29.20;99.90
51579;DHT22;47998;53.242;6.386;2023-06-14T11:30:22;29.40;99.90
51579;DHT22;47998;53.242;6.386;2023-06-14T11:32:52;29.50;99.90
51579;DHT22;47998;53.242;6.386;2023-06-14T11:35:19;29.60;99.90
51579;DHT22;47998;53.242;6.386;2023-06-14T11:37:47;29.80;99.90
51579;DHT22;47998;53.242;6.386;2023-06-14T11:40:14;30.00;99.90
51579;DHT22;47998;53.242;6.386;2023-06-14T11:42:41;29.60;99.90
51579;DHT22;47998;53.242;6.386;2023-06-14T11:45:10;29.30;99.90
51579;DHT22;47998;53.242;6.386;2023-06-14T11:47:40;28.50;99.90
51579;DHT22;47998;53.242;6.386;2023-06-14T11:50:07;28.40;99.90
51579;DHT22;47998;53.242;6.386;2023-06-14T11:52:36;28.30;99.90
51579;DHT22;47998;53.242;6.386;2023-06-14T11:55:03;28.30;99.90
51579;DHT22;47998;53.242;6.386;2023-06-14T11:57:35;28.50;99.90
51579;DHT22;47998;53.242;6.386;2023-06-14T12:00:07;28.30;99.90
51579;DHT22;47998;53.242;6.386;2023-06-14T12:02:37;28.70;99.90
51579;DHT22;47998;53.242;6.386;2023-06-14T12:05:05;29.30;99.90
51579;DHT22;47998;53.242;6.386;2023-06-14T12:07:33;30.20;99.90
51579;DHT22;47998;53.242;6.386;2023-06-14T12:12:25;30.60;99.90
51579;DHT22;47998;53.242;6.386;2023-06-14T12:14:52;30.30;99.90
51579;DHT22;47998;53.242;6.386;2023-06-14T12:17:19;30.80;99.90
51579;DHT22;47998;53.242;6.386;2023-06-14T12:19:46;30.70;99.90
51579;DHT22;47998;53.242;6.386;2023-06-14T12:22:13;31.00;99.90
51579;DHT22;47998;53.242;6.386;2023-06-14T12:24:42;30.70;99.90
51579;DHT22;47998;53.242;6.386;2023-06-14T12:27:08;30.80;99.90
51579;DHT22;47998;53.242;6.386;2023-06-14T12:29:34;30.60;99.90
51579;DHT22;47998;53.242;6.386;2023-06-14T12:32:00;30.60;99.90
51579;DHT22;47998;53.242;6.386;2023-06-14T12:34:27;31.10;99.90
51579;DHT22;47998;53.242;6.386;2023-06-14T12:36:56;31.20;99.90
51579;DHT22;47998;53.242;6.386;2023-06-14T12:39:22;31.00;99.90
51579;DHT22;47998;53.242;6.386;2023-06-14T12:41:48;31.00;99.90
51579;DHT22;47998;53.242;6.386;2023-06-14T12:44:14;31.10;99.90
51579;DHT22;47998;53.242;6.386;2023-06-14T12:46:43;31.20;99.90
51579;DHT22;47998;53.242;6.386;2023-06-14T12:49:11;31.40;99.90
51579;DHT22;47998;53.242;6.386;2023-06-14T12:51:37;31.10;99.90
51579;DHT22;47998;53.242;6.386;2023-06-14T12:54:04;29.60;99.90
51579;DHT22;47998;53.242;6.386;2023-06-14T12:56:29;29.20;99.90
51579;DHT22;47998;53.242;6.386;2023-06-14T12:58:55;29.50;99.90
51579;DHT22;47998;53.242;6.386;2023-06-14T13:01:21;29.80;99.90
51579;DHT22;47998;53.242;6.386;2023-06-14T13:03:47;29.60;99.90
51579;DHT22;47998;53.242;6.386;2023-06-14T13:06:13;29.60;99.90
51579;DHT22;47998;53.242;6.386;2023-06-14T13:08:39;29.90;99.90
51579;DHT22;47998;53.242;6.386;2023-06-14T13:11:05;30.40;99.90
51579;DHT22;47998;53.242;6.386;2023-06-14T13:13:30;30.80;99.90
51579;DHT22;47998;53.242;6.386;2023-06-14T13:15:56;31.20;99.90
51579;DHT22;47998;53.242;6.386;2023-06-14T13:18:22;31.20;99.90
51579;DHT22;47998;53.242;6.386;2023-06-14T13:20:48;31.10;99.90
51579;DHT22;47998;53.242;6.386;2023-06-14T13:23:15;30.80;99.90
51579;DHT22;47998;53.242;6.386;2023-06-14T13:25:40;30.80;99.90
51579;DHT22;47998;53.242;6.386;2023-06-14T13:28:06;30.60;99.90
51579;DHT22;47998;53.242;6.386;2023-06-14T13:30:34;30.00;99.90
51579;DHT22;47998;53.242;6.386;2023-06-14T13:33:00;29.10;99.90
51579;DHT22;47998;53.242;6.386;2023-06-14T13:35:26;28.50;99.90
51579;DHT22;47998;53.242;6.386;2023-06-14T13:37:52;28.10;99.90
51579;DHT22;47998;53.242;6.386;2023-06-14T13:40:18;28.00;99.90
51579;DHT22;47998;53.242;6.386;2023-06-14T13:42:44;27.70;99.90
51579;DHT22;47998;53.242;6.386;2023-06-14T13:45:11;27.20;99.90
51579;DHT22;47998;53.242;6.386;2023-06-14T13:47:37;27.20;99.90
51579;DHT22;47998;53.242;6.386;2023-06-14T13:50:04;27.40;99.90
51579;DHT22;47998;53.242;6.386;2023-06-14T13:52:30;27.20;99.90
51579;DHT22;47998;53.242;6.386;2023-06-14T13:54:56;27.50;99.90
51579;DHT22;47998;53.242;6.386;2023-06-14T13:57:21;28.00;99.90
51579;DHT22;47998;53.242;6.386;2023-06-14T13:59:47;28.60;99.90
51579;DHT22;47998;53.242;6.386;2023-06-14T14:02:14;29.20;99.90
51579;DHT22;47998;53.242;6.386;2023-06-14T14:04:40;29.90;99.90
51579;DHT22;47998;53.242;6.386;2023-06-14T14:07:07;30.10;99.90
51579;DHT22;47998;53.242;6.386;2023-06-14T14:09:33;29.90;99.90
51579;DHT22;47998;53.242;6.386;2023-06-14T14:12:04;29.20;99.90
51579;DHT22;47998;53.242;6.386;2023-06-14T14:14:31;28.40;99.90
51579;DHT22;47998;53.242;6.386;2023-06-14T14:16:57;28.30;99.90
51579;DHT22;47998;53.242;6.386;2023-06-14T14:19:24;28.60;99.90
51579;DHT22;47998;53.242;6.386;2023-06-14T14:21:50;29.10;99.90
51579;DHT22;47998;53.242;6.386;2023-06-14T14:24:15;29.90;99.90
51579;DHT22;47998;53.242;6.386;2023-06-14T14:26:42;30.10;99.90
51579;DHT22;47998;53.242;6.386;2023-06-14T14:29:08;30.10;99.90
51579;DHT22;47998;53.242;6.386;2023-06-14T14:31:37;30.10;99.90
51579;DHT22;47998;53.242;6.386;2023-06-14T14:34:02;29.40;99.90
51579;DHT22;47998;53.242;6.386;2023-06-14T14:36:28;29.20;99.90
51579;DHT22;47998;53.242;6.386;2023-06-14T14:38:54;29.30;99.90
51579;DHT22;47998;53.242;6.386;2023-06-14T14:41:20;30.00;99.90
51579;DHT22;47998;53.242;6.386;2023-06-14T14:43:45;30.50;99.90
51579;DHT22;47998;53.242;6.386;2023-06-14T14:46:11;30.70;99.90
51579;DHT22;47998;53.242;6.386;2023-06-14T14:48:37;30.40;99.90
51579;DHT22;47998;53.242;6.386;2023-06-14T14:51:03;30.20;99.90
51579;DHT22;47998;53.242;6.386;2023-06-14T14:53:28;30.20;99.90
51579;DHT22;47998;53.242;6.386;2023-06-14T14:55:54;30.30;99.90
51579;DHT22;47998;53.242;6.386;2023-06-14T14:58:20;30.50;1.00
51579;DHT22;47998;53.242;6.386;2023-06-14T15:00:47;29.90;1.00
51579;DHT22;47998;53.242;6.386;2023-06-14T15:03:13;29.60;1.00
51579;DHT22;47998;53.242;6.386;2023-06-14T15:05:39;29.00;1.00
51579;DHT22;47998;53.242;6.386;2023-06-14T15:08:05;28.00;1.00
51579;DHT22;47998;53.242;6.386;2023-06-14T15:10:40;27.30;1.00
51579;DHT22;47998;53.242;6.386;2023-06-14T15:13:10;27.40;1.00
51579;DHT22;47998;53.242;6.386;2023-06-14T15:15:36;27.50;1.00
51579;DHT22;47998;53.242;6.386;2023-06-14T15:18:03;27.80;1.00
51579;DHT22;47998;53.242;6.386;2023-06-14T15:20:29;27.70;1.00
51579;DHT22;47998;53.242;6.386;2023-06-14T15:22:54;27.80;1.00
51579;DHT22;47998;53.242;6.386;2023-06-14T15:25:28;28.00;1.00
51579;DHT22;47998;53.242;6.386;2023-06-14T15:27:54;28.30;1.00
51579;DHT22;47998;53.242;6.386;2023-06-14T15:30:20;28.60;1.00
51579;DHT22;47998;53.242;6.386;2023-06-14T15:32:46;28.80;1.00
51579;DHT22;47998;53.242;6.386;2023-06-14T15:35:12;28.30;1.00
51579;DHT22;47998;53.242;6.386;2023-06-14T15:37:38;27.40;1.00
51579;DHT22;47998;53.242;6.386;2023-06-14T15:40:05;26.50;1.00
51579;DHT22;47998;53.242;6.386;2023-06-14T15:42:31;26.20;1.00
51579;DHT22;47998;53.242;6.386;2023-06-14T15:44:57;26.60;1.00
51579;DHT22;47998;53.242;6.386;2023-06-14T15:47:23;27.00;1.00
51579;DHT22;47998;53.242;6.386;2023-06-14T15:49:49;27.00;1.00
51579;DHT22;47998;53.242;6.386;2023-06-14T15:52:15;26.50;1.00
51579;DHT22;47998;53.242;6.386;2023-06-14T15:54:40;26.40;1.00